대문
인공위성 심상 15 일 일기 예보기후바람 예보 사이클론 번개 공항FAQ 회보 프로젝트 소개
날씨 : 유럽 아프리카 북아메리카 남아메리카 아시아 오스트레일리아-오세아니아 다른 사람
언어 접촉

청도, 중국

위도: 36-04N, 경도: 120-20E, 해발고도: 77 m


METAR: ZSQD 230500Z 18005MPS 160V220 6000 NSC 21/12 Q1017 NOSIG
TAF: ZSQD 230323Z 2306/2406 18004MPS 5000 BR NSC TX23/2307Z TN13/21Z

시간: 13:52 (05:52 UTC)

날씨관측

보고는 전에 52 분 제출되었다: 05:00 UTC
바람 10 kt , 사이 변화 남남동 그리고 남서
온도 21°C
습도 56%
기압 1017 hPa
시정: 6000 m

단위계

날씨예보

보고는 전에 2 시간 그리고 29 분 제출되었다: 03:23 UTC
예보기간[UTC] : 23일 06시 ~ 24일 06시
바람 8 kt
시정: 5000 m
박무
이 위치에 정보는 a를 조건으로 하여 이다 포기
날씨 : 유럽 아프리카 북아메리카 남아메리카 아시아 오스트레일리아-오세아니아 다른 사람
인공위성 심상 15 일 일기 예보기후바람 예보 사이클론 번개 공항FAQ 언어 접촉 회보 프로젝트 소개